Terminal Aerodrome Forecast
Issued by NWS Wilmington, NC

Home | Current Version | Previous Version | Text Only | Print | Product List | Glossary On
Versions: 1 2 3 4 5 6 7 8 9 10 11 12 13
000
FTUS42 KILM 251120
TAFFLO
TAF
KFLO 251120Z 2512/2612 VRB03KT 6SM -RA BKN070
     FM251300 20008KT 5SM -SHRA SCT025 BKN040
     FM251600 19011KT 4SM -RA BR VCTS SCT007 BKN015 BKN030CB
     FM260200 VRB04KT P6SM BKN015=

USA.gov is the U.S. government's official web portal to all federal, state and local government web resources and services.